createdAt,value
2019-06-07T00:01:50.316Z,14.13
2019-06-07T00:02:50.801Z,14.08
2019-06-07T00:03:51.280Z,14.11
2019-06-07T00:04:51.766Z,14.04
2019-06-07T00:05:52.280Z,14.07
2019-06-07T00:06:52.798Z,14.05
2019-06-07T00:07:53.297Z,14.12
2019-06-07T00:08:53.787Z,14.04
2019-06-07T00:09:54.307Z,14.11
2019-06-07T00:10:54.799Z,14.12
2019-06-07T00:11:55.279Z,14.07
2019-06-07T00:12:55.807Z,14.12
2019-06-07T00:13:56.300Z,14.11
2019-06-07T00:14:56.781Z,14.04
2019-06-07T00:15:57.285Z,14.05
2019-06-07T00:16:57.801Z,14.07
2019-06-07T00:17:58.277Z,13.97
2019-06-07T00:18:58.766Z,13.94
2019-06-07T00:19:59.258Z,13.94
2019-06-07T00:20:59.766Z,13.98
2019-06-07T00:22:17.622Z,13.98
2019-06-07T00:23:08.547Z,13.86
2019-06-07T00:24:13.083Z,13.91
2019-06-07T00:25:22.830Z,13.83
2019-06-07T00:26:22.594Z,13.91
2019-06-07T00:27:23.095Z,13.83
2019-06-07T00:28:23.582Z,13.85
2019-06-07T00:29:24.072Z,13.71
2019-06-07T00:30:50.705Z,13.79
2019-06-07T00:31:31.049Z,13.79
2019-06-07T00:32:31.519Z,13.70
2019-06-07T00:33:32.021Z,13.73
2019-06-07T00:34:32.501Z,13.75
2019-06-07T00:35:32.959Z,13.73
2019-06-07T00:36:33.484Z,13.62
2019-06-07T00:37:34.021Z,13.75
2019-06-07T00:38:34.495Z,13.64
2019-06-07T00:39:34.966Z,13.64
2019-06-07T00:40:35.475Z,13.62
2019-06-07T00:41:35.981Z,13.61
2019-06-07T00:42:36.493Z,13.61
2019-06-07T00:43:37.101Z,13.61
2019-06-07T00:44:37.607Z,13.60
2019-06-07T00:45:38.081Z,13.65
2019-06-07T00:46:38.579Z,13.64
2019-06-07T00:47:39.088Z,13.58
2019-06-07T00:48:39.598Z,13.67
2019-06-07T00:49:46.805Z,13.60
2019-06-07T00:50:47.278Z,13.62
2019-06-07T00:51:51.373Z,13.60
2019-06-07T00:53:14.549Z,13.49
2019-06-07T00:53:58.858Z,13.54
2019-06-07T00:54:59.361Z,13.52
2019-06-07T00:56:00.846Z,13.58
2019-06-07T00:57:01.358Z,13.43
2019-06-07T00:58:02.524Z,13.61
2019-06-07T00:59:11.110Z,13.55
2019-06-07T01:00:09.590Z,13.49
2019-06-07T01:01:13.106Z,13.45
2019-06-07T01:02:16.109Z,13.45
2019-06-07T01:03:18.163Z,13.36
2019-06-07T01:04:23.113Z,13.43
2019-06-07T01:05:31.317Z,13.42
2019-06-07T01:06:32.641Z,13.37
2019-06-07T01:07:36.294Z,13.49
2019-06-07T01:08:36.781Z,13.45
2019-06-07T01:09:37.253Z,13.45
2019-06-07T01:10:53.102Z,13.40
2019-06-07T01:11:44.250Z,13.28
2019-06-07T01:12:44.761Z,13.36
2019-06-07T01:13:45.259Z,13.16
2019-06-07T01:16:00.781Z,13.20
2019-06-07T01:17:22.459Z,13.26
2019-06-07T01:18:35.963Z,13.19
2019-06-07T01:19:16.434Z,13.16
2019-06-07T01:20:19.165Z,13.28
2019-06-07T01:21:36.278Z,13.12
2019-06-07T01:22:36.781Z,13.23
2019-06-07T01:24:43.742Z,13.16
2019-06-07T01:25:44.221Z,13.09
2019-06-07T01:26:45.579Z,13.13
2019-06-07T01:27:46.221Z,13.06
2019-06-07T01:28:46.701Z,13.02
2019-06-07T01:29:47.197Z,13.05
2019-06-07T01:30:47.728Z,13.03
2019-06-07T01:31:48.281Z,13.01
2019-06-07T01:32:48.767Z,12.99
2019-06-07T01:33:51.145Z,12.99
2019-06-07T01:34:51.958Z,13.02
2019-06-07T01:35:52.446Z,13.06
2019-06-07T01:36:54.069Z,12.99
2019-06-07T01:37:54.550Z,12.99
2019-06-07T01:38:55.046Z,13.03
2019-06-07T01:39:55.542Z,12.99
2019-06-07T01:40:56.018Z,12.95
2019-06-07T01:41:56.513Z,12.94
2019-06-07T01:42:56.999Z,13.01
2019-06-07T01:43:57.478Z,12.99
2019-06-07T01:44:58.020Z,12.99
2019-06-07T01:45:58.501Z,12.99
2019-06-07T01:46:59.007Z,13.03
2019-06-07T01:47:59.482Z,12.90
2019-06-07T01:48:59.961Z,12.91
2019-06-07T01:50:00.467Z,12.88
2019-06-07T01:51:00.978Z,12.90
2019-06-07T01:52:01.557Z,12.86
2019-06-07T01:53:02.057Z,12.91
2019-06-07T01:54:48.572Z,12.88
2019-06-07T01:55:09.059Z,12.80
2019-06-07T01:56:09.546Z,12.84
2019-06-07T01:57:30.555Z,12.76
2019-06-07T01:58:17.046Z,12.80
2019-06-07T01:59:17.840Z,12.90
2019-06-07T02:00:21.643Z,12.76
2019-06-07T02:01:26.616Z,12.80
2019-06-07T02:02:31.896Z,12.76
2019-06-07T02:03:33.477Z,12.81
2019-06-07T02:04:34.147Z,12.78
2019-06-07T02:05:34.622Z,12.72
2019-06-07T02:06:35.103Z,12.73
2019-06-07T02:07:35.614Z,12.68
2019-06-07T02:08:36.129Z,12.69
2019-06-07T02:09:36.666Z,12.72
2019-06-07T02:10:37.229Z,12.75
2019-06-07T02:11:38.799Z,12.69
2019-06-07T02:12:43.381Z,12.66
2019-06-07T02:13:44.278Z,12.78
2019-06-07T02:14:44.798Z,12.73
2019-06-07T02:15:45.319Z,12.69
2019-06-07T02:16:45.807Z,12.65
2019-06-07T02:17:46.420Z,12.72
2019-06-07T02:19:01.203Z,12.75
2019-06-07T02:19:53.519Z,12.54
2019-06-07T02:20:54.007Z,12.53
2019-06-07T02:21:54.528Z,12.76
2019-06-07T02:22:55.021Z,12.54
2019-06-07T02:23:55.568Z,12.62
2019-06-07T02:25:34.488Z,12.68
2019-06-07T02:26:02.523Z,12.57
2019-06-07T02:27:03.013Z,12.58
2019-06-07T02:28:26.402Z,12.65
2019-06-07T02:29:10.029Z,12.65
2019-06-07T02:30:36.928Z,12.63
2019-06-07T02:31:17.015Z,12.57
2019-06-07T02:32:17.518Z,12.54
2019-06-07T02:33:18.007Z,12.54
2019-06-07T02:34:18.573Z,12.51
2019-06-07T02:35:19.047Z,12.55
2019-06-07T02:36:19.605Z,12.55
2019-06-07T02:37:21.486Z,12.53
2019-06-07T02:38:23.162Z,12.54
2019-06-07T02:39:28.756Z,12.47
2019-06-07T02:40:37.215Z,12.50
2019-06-07T02:41:40.435Z,12.47
2019-06-07T02:42:42.835Z,12.48
2019-06-07T02:43:43.562Z,12.54
2019-06-07T02:44:44.089Z,12.44
2019-06-07T02:45:44.574Z,12.39
2019-06-07T02:46:49.437Z,12.53
2019-06-07T02:47:50.392Z,12.45
2019-06-07T02:48:50.913Z,12.45
2019-06-07T02:49:51.422Z,12.45
2019-06-07T02:50:51.964Z,12.48
2019-06-07T02:51:52.463Z,12.39
2019-06-07T02:52:52.986Z,12.43
2019-06-07T02:53:53.468Z,12.45
2019-06-07T02:54:53.942Z,12.37
2019-06-07T02:56:35.325Z,12.47
2019-06-07T02:57:00.932Z,12.50
2019-06-07T02:58:01.462Z,12.43
2019-06-07T02:59:02.077Z,12.44
2019-06-07T03:00:17.105Z,12.44
2019-06-07T03:01:09.945Z,12.40
2019-06-07T03:02:10.688Z,12.45
2019-06-07T03:03:11.202Z,12.37
2019-06-07T03:04:11.708Z,12.43
2019-06-07T03:05:12.240Z,12.39
2019-06-07T03:06:12.742Z,12.43
2019-06-07T03:07:13.213Z,12.39
2019-06-07T03:08:13.806Z,12.28
2019-06-07T03:09:14.293Z,12.25
2019-06-07T03:10:14.806Z,12.25
2019-06-07T03:11:15.337Z,12.26
2019-06-07T03:12:15.845Z,12.25
2019-06-07T03:13:16.341Z,12.23
2019-06-07T03:14:16.846Z,12.29
2019-06-07T03:15:32.971Z,12.21
2019-06-07T03:16:23.801Z,12.23
2019-06-07T03:17:24.320Z,12.32
2019-06-07T03:18:24.805Z,12.29
2019-06-07T03:19:26.387Z,12.26
2019-06-07T03:20:27.513Z,12.26
2019-06-07T03:21:31.496Z,12.33
2019-06-07T03:22:35.133Z,12.23
2019-06-07T03:23:39.176Z,12.30
2019-06-07T03:24:42.303Z,12.29
2019-06-07T03:25:44.564Z,12.33
2019-06-07T03:27:32.231Z,12.30
2019-06-07T03:27:51.481Z,12.30
2019-06-07T03:28:51.970Z,12.29
2019-06-07T03:29:52.443Z,12.25
2019-06-07T03:31:02.377Z,12.29
2019-06-07T03:31:59.409Z,12.26
2019-06-07T03:33:01.889Z,12.29
2019-06-07T03:34:02.707Z,12.30
2019-06-07T03:35:05.180Z,12.30
2019-06-07T03:36:22.923Z,12.28
2019-06-07T03:37:19.767Z,12.33
2019-06-07T03:38:20.242Z,12.29
2019-06-07T03:39:21.726Z,12.20
2019-06-07T03:40:22.204Z,12.23
2019-06-07T03:41:23.684Z,12.26
2019-06-07T03:42:24.163Z,12.28
2019-06-07T03:43:27.286Z,12.30
2019-06-07T03:44:32.126Z,12.23
2019-06-07T03:45:40.124Z,12.29
2019-06-07T03:46:41.993Z,12.30
2019-06-07T03:47:43.585Z,12.29
2019-06-07T03:48:44.078Z,12.29
2019-06-07T03:49:45.563Z,12.28
2019-06-07T03:50:46.250Z,12.23
2019-06-07T03:53:03.868Z,12.36
2019-06-07T03:54:12.284Z,12.33
2019-06-07T03:55:12.758Z,12.33
2019-06-07T03:56:15.786Z,12.35
2019-06-07T03:57:16.513Z,12.36
2019-06-07T03:58:41.177Z,12.37
2019-06-07T03:59:25.479Z,12.47
2019-06-07T04:00:29.789Z,12.40
2019-06-07T04:01:34.870Z,12.54
2019-06-07T04:02:41.694Z,12.43
2019-06-07T04:03:50.798Z,12.44
2019-06-07T04:04:49.558Z,12.48
2019-06-07T04:05:51.060Z,12.48
2019-06-07T04:06:51.569Z,12.54
2019-06-07T04:07:52.063Z,12.48
2019-06-07T04:08:52.570Z,12.55
2019-06-07T04:09:53.047Z,12.61
2019-06-07T04:11:00.264Z,12.54
2019-06-07T04:11:59.984Z,12.58
2019-06-07T04:13:00.449Z,12.69
2019-06-07T04:14:00.934Z,12.66
2019-06-07T04:15:01.408Z,12.69
2019-06-07T04:16:01.901Z,12.66
2019-06-07T04:17:02.443Z,12.72
2019-06-07T04:18:04.101Z,12.70
2019-06-07T04:19:04.688Z,12.68
2019-06-07T04:20:05.202Z,12.63
2019-06-07T04:21:05.679Z,12.62
2019-06-07T04:22:06.167Z,12.72
2019-06-07T04:23:27.205Z,12.70
2019-06-07T04:24:13.159Z,12.78
2019-06-07T04:25:14.631Z,12.80
2019-06-07T04:26:15.143Z,12.80
2019-06-07T04:27:15.752Z,12.80
2019-06-07T04:28:16.212Z,12.80
2019-06-07T04:29:36.986Z,12.87
2019-06-07T04:30:23.184Z,12.91
2019-06-07T04:31:24.656Z,12.87
2019-06-07T04:32:25.129Z,12.87
2019-06-07T04:33:28.787Z,12.91
2019-06-07T04:34:32.012Z,12.90
2019-06-07T04:35:37.137Z,12.93
2019-06-07T04:36:54.815Z,13.01
2019-06-07T04:37:47.066Z,13.01
2019-06-07T04:38:47.559Z,13.05
2019-06-07T04:39:48.073Z,13.03
2019-06-07T04:40:48.555Z,13.12
2019-06-07T04:41:49.043Z,13.11
2019-06-07T04:42:49.527Z,13.16
2019-06-07T04:43:50.041Z,13.12
2019-06-07T04:44:50.527Z,13.03
2019-06-07T04:45:51.543Z,13.21
2019-06-07T04:46:52.121Z,13.23
2019-06-07T04:47:52.594Z,13.23
2019-06-07T04:48:53.094Z,13.21
2019-06-07T04:49:53.585Z,13.26
2019-06-07T04:50:54.053Z,13.26
2019-06-07T04:51:54.539Z,13.33
2019-06-07T04:52:55.049Z,13.23
2019-06-07T04:53:55.657Z,13.43
2019-06-07T04:54:56.133Z,13.33
2019-06-07T04:55:56.637Z,13.33
2019-06-07T04:56:57.174Z,13.40
2019-06-07T04:57:57.643Z,13.49
2019-06-07T04:58:58.148Z,13.49
2019-06-07T05:00:12.953Z,13.47
2019-06-07T05:01:05.087Z,13.55
2019-06-07T05:02:05.551Z,13.60
2019-06-07T05:03:06.023Z,13.64
2019-06-07T05:04:06.533Z,13.60
2019-06-07T05:05:06.998Z,13.71
2019-06-07T05:06:07.488Z,13.71
2019-06-07T05:07:07.958Z,13.67
2019-06-07T05:08:27.108Z,13.75
2019-06-07T05:09:14.913Z,13.76
2019-06-07T05:10:15.411Z,13.83
2019-06-07T05:11:15.881Z,13.75
2019-06-07T05:12:16.349Z,13.73
2019-06-07T05:13:16.868Z,13.80
2019-06-07T05:14:17.365Z,13.87
2019-06-07T05:15:17.840Z,13.87
2019-06-07T05:16:18.303Z,13.86
2019-06-07T05:17:18.768Z,13.86
2019-06-07T05:18:19.267Z,13.93
2019-06-07T05:19:19.760Z,13.98
2019-06-07T05:20:20.239Z,13.98
2019-06-07T05:21:20.725Z,14.03
2019-06-07T05:22:21.231Z,14.01
2019-06-07T05:23:59.937Z,14.05
2019-06-07T05:24:28.178Z,14.08
2019-06-07T05:25:31.630Z,14.11
2019-06-07T05:26:38.509Z,14.16
2019-06-07T05:27:46.322Z,14.19
2019-06-07T05:28:46.674Z,14.20
2019-06-07T05:30:08.893Z,14.23
2019-06-07T05:31:05.302Z,14.23
2019-06-07T05:32:00.059Z,14.28
2019-06-07T05:33:00.544Z,14.28
2019-06-07T05:34:01.035Z,14.33
2019-06-07T05:35:01.572Z,14.31
2019-06-07T05:36:02.059Z,14.40
2019-06-07T05:37:11.643Z,14.33
2019-06-07T05:38:09.043Z,14.44
2019-06-07T05:39:09.587Z,14.38
2019-06-07T05:40:10.082Z,14.44
2019-06-07T05:41:10.582Z,14.56
2019-06-07T05:42:11.251Z,14.55
2019-06-07T05:43:11.879Z,14.40
2019-06-07T05:44:14.819Z,14.43
2019-06-07T05:45:15.654Z,14.52
2019-06-07T05:46:16.144Z,14.55
2019-06-07T05:47:16.660Z,14.55
2019-06-07T05:48:17.149Z,14.59
2019-06-07T05:49:18.726Z,14.61
2019-06-07T05:50:39.001Z,14.61
2019-06-07T05:51:25.738Z,14.56
2019-06-07T05:52:27.281Z,14.70
2019-06-07T05:53:27.778Z,14.67
2019-06-07T05:54:28.394Z,14.62
2019-06-07T05:55:28.923Z,14.74
2019-06-07T05:56:29.414Z,14.68
2019-06-07T05:57:29.897Z,14.71
2019-06-07T05:58:30.443Z,14.78
2019-06-07T05:59:30.911Z,14.81
2019-06-07T06:00:31.444Z,14.81
2019-06-07T06:01:58.935Z,14.79
2019-06-07T06:02:59.004Z,14.81
2019-06-07T06:03:48.011Z,14.81
2019-06-07T06:04:49.712Z,14.89
2019-06-07T06:05:55.278Z,14.89
2019-06-07T06:08:13.331Z,14.96
2019-06-07T06:09:14.364Z,14.97
2019-06-07T06:10:15.003Z,15.02
2019-06-07T06:11:15.600Z,15.04
2019-06-07T06:12:33.449Z,15.10
2019-06-07T06:13:22.558Z,15.07
2019-06-07T06:14:25.244Z,15.11
2019-06-07T06:15:41.612Z,15.12
2019-06-07T06:16:32.189Z,15.08
2019-06-07T06:17:32.729Z,15.15
2019-06-07T06:18:33.215Z,15.12
2019-06-07T06:21:19.408Z,15.15
2019-06-07T06:22:03.314Z,15.17
2019-06-07T06:23:03.885Z,15.18
2019-06-07T06:24:04.392Z,15.22
2019-06-07T06:25:33.854Z,15.30
2019-06-07T06:26:11.482Z,15.30
2019-06-07T06:27:28.411Z,15.32
2019-06-07T06:28:18.433Z,15.26
2019-06-07T06:29:18.889Z,15.30
2019-06-07T06:30:19.468Z,15.32
2019-06-07T06:31:19.938Z,15.29
2019-06-07T06:33:33.682Z,15.43
2019-06-07T06:34:33.398Z,15.35
2019-06-07T06:35:33.890Z,15.44
2019-06-07T06:36:34.429Z,15.41
2019-06-07T06:37:34.878Z,15.57
2019-06-07T06:38:35.404Z,15.52
2019-06-07T06:39:37.036Z,15.50
2019-06-07T06:40:38.905Z,15.50
2019-06-07T06:41:49.978Z,15.59
2019-06-07T06:42:49.015Z,15.63
2019-06-07T06:43:52.572Z,15.65
2019-06-07T06:44:54.172Z,15.65
2019-06-07T06:45:54.958Z,15.63
2019-06-07T06:46:58.080Z,15.72
2019-06-07T06:47:59.129Z,15.72
2019-06-07T06:48:59.616Z,15.73
2019-06-07T06:50:00.171Z,15.83
2019-06-07T06:51:00.643Z,15.87
2019-06-07T06:52:01.205Z,15.90
2019-06-07T06:53:01.679Z,15.84
2019-06-07T06:54:02.259Z,15.90
2019-06-07T06:55:02.739Z,16.02
2019-06-07T06:56:07.323Z,16.00
2019-06-07T06:57:19.766Z,16.06
2019-06-07T06:58:14.267Z,16.25
2019-06-07T06:59:37.945Z,16.21
2019-06-07T07:00:21.498Z,16.32
2019-06-07T07:01:21.982Z,16.40
2019-06-07T07:02:23.595Z,16.43
2019-06-07T07:03:56.848Z,16.43
2019-06-07T07:04:30.548Z,16.46
2019-06-07T07:05:31.018Z,16.49
2019-06-07T07:06:31.619Z,16.40
2019-06-07T07:07:32.092Z,16.58
2019-06-07T07:08:32.664Z,16.55
2019-06-07T07:09:33.133Z,16.50
2019-06-07T07:10:33.759Z,16.51
2019-06-07T07:11:34.237Z,16.59
2019-06-07T07:12:40.367Z,16.61
2019-06-07T07:13:41.628Z,16.59
2019-06-07T07:14:45.574Z,16.74
2019-06-07T07:15:51.029Z,16.82
2019-06-07T07:16:56.609Z,16.77
2019-06-07T07:18:07.770Z,16.94
2019-06-07T07:19:03.904Z,16.95
2019-06-07T07:20:04.467Z,17.01
2019-06-07T07:21:04.973Z,17.02
2019-06-07T07:22:05.624Z,17.13
2019-06-07T07:23:06.088Z,17.10
2019-06-07T07:24:21.028Z,17.20
2019-06-07T07:25:13.221Z,17.22
2019-06-07T07:26:13.833Z,17.28
2019-06-07T07:27:14.368Z,17.32
2019-06-07T07:28:14.971Z,17.24
2019-06-07T07:29:15.450Z,17.34
2019-06-07T07:30:36.183Z,17.38
2019-06-07T07:31:22.623Z,17.44
2019-06-07T07:32:23.194Z,17.50
2019-06-07T07:33:23.704Z,17.54
2019-06-07T07:34:35.366Z,17.56
2019-06-07T07:35:37.388Z,17.68
2019-06-07T07:36:39.908Z,17.65
2019-06-07T07:37:40.574Z,17.72
2019-06-07T07:38:41.160Z,17.75
2019-06-07T07:39:41.637Z,17.82
2019-06-07T07:41:08.958Z,17.80
2019-06-07T07:42:13.738Z,17.94
2019-06-07T07:42:56.776Z,17.93
2019-06-07T07:44:05.756Z,17.95
2019-06-07T07:45:03.933Z,17.93
2019-06-07T07:46:27.142Z,18.05
2019-06-07T07:47:11.161Z,18.06
2019-06-07T07:48:17.522Z,18.15
2019-06-07T07:49:18.204Z,18.13
2019-06-07T07:50:18.845Z,18.16
2019-06-07T07:51:19.483Z,18.24
2019-06-07T07:52:19.973Z,18.15
2019-06-07T07:53:20.728Z,18.24
2019-06-07T07:54:21.261Z,18.23
2019-06-07T07:55:21.998Z,18.21
2019-06-07T07:56:22.545Z,18.30
2019-06-07T07:57:23.173Z,18.34
2019-06-07T07:58:23.676Z,18.39
2019-06-07T07:59:41.308Z,18.42
2019-06-07T08:01:39.433Z,18.60
2019-06-07T08:02:39.915Z,18.57
2019-06-07T08:03:40.514Z,18.63
2019-06-07T08:05:13.865Z,18.64
2019-06-07T08:05:48.996Z,18.63
2019-06-07T08:06:53.339Z,18.52
2019-06-07T08:07:59.789Z,18.58
2019-06-07T08:09:01.743Z,18.70
2019-06-07T08:10:04.119Z,18.57
2019-06-07T08:11:05.240Z,18.76
2019-06-07T08:12:05.735Z,18.71
2019-06-07T08:13:23.788Z,18.67
2019-06-07T08:14:12.880Z,18.68
2019-06-07T08:15:13.453Z,18.66
2019-06-07T08:16:16.496Z,18.71
2019-06-07T08:17:19.153Z,18.92
2019-06-07T08:18:19.680Z,18.92
2019-06-07T08:19:22.298Z,18.92
2019-06-07T08:20:22.778Z,19.09
2019-06-07T08:21:26.716Z,18.92
2019-06-07T08:22:27.698Z,19.01
2019-06-07T08:23:28.370Z,19.00
2019-06-07T08:24:28.956Z,19.01
2019-06-07T08:25:29.603Z,19.01
2019-06-07T08:26:30.108Z,19.15
2019-06-07T08:27:30.828Z,19.11
2019-06-07T08:28:31.309Z,19.20
2019-06-07T08:29:44.521Z,19.30
2019-06-07T08:31:03.670Z,19.29
2019-06-07T08:31:44.989Z,19.35
2019-06-07T08:32:45.473Z,19.24
2019-06-07T08:33:46.099Z,19.19
2019-06-07T08:34:49.081Z,19.15
2019-06-07T08:37:02.023Z,19.23
2019-06-07T08:39:09.280Z,19.34
2019-06-07T08:40:09.893Z,19.41
2019-06-07T08:41:12.610Z,19.41
2019-06-07T08:42:18.027Z,19.45
2019-06-07T08:43:21.185Z,19.49
2019-06-07T08:44:25.509Z,19.56
2019-06-07T08:45:26.219Z,19.53
2019-06-07T08:46:33.417Z,19.62
2019-06-07T08:47:33.919Z,19.67
2019-06-07T08:48:34.503Z,19.64
2019-06-07T08:49:35.013Z,19.60
2019-06-07T08:50:35.554Z,19.63
2019-06-07T08:51:36.028Z,19.66
2019-06-07T08:52:37.573Z,19.66
2019-06-07T08:53:38.063Z,19.66
2019-06-07T08:54:39.673Z,19.70
2019-06-07T08:55:40.170Z,19.72
2019-06-07T08:58:02.342Z,19.62
2019-06-07T08:59:10.809Z,19.62
2019-06-07T09:00:42.335Z,19.62
2019-06-07T09:01:15.534Z,19.63
2019-06-07T09:02:23.729Z,19.59
2019-06-07T09:03:22.505Z,19.57
2019-06-07T09:04:25.104Z,19.64
2019-06-07T09:05:25.578Z,19.56
2019-06-07T09:07:01.957Z,19.74
2019-06-07T09:07:35.618Z,19.72
2019-06-07T09:08:36.094Z,19.90
2019-06-07T09:09:59.277Z,19.99
2019-06-07T09:11:05.137Z,20.04
2019-06-07T09:12:10.799Z,20.17
2019-06-07T09:13:12.201Z,20.14
2019-06-07T09:14:19.333Z,20.14
2019-06-07T09:15:23.346Z,20.21
2019-06-07T09:16:25.283Z,20.30
2019-06-07T09:17:25.834Z,20.36
2019-06-07T09:18:44.810Z,20.32
2019-06-07T09:19:32.920Z,20.32
2019-06-07T09:20:36.859Z,20.39
2019-06-07T09:21:39.853Z,20.22
2019-06-07T09:22:40.373Z,20.24
2019-06-07T09:23:40.881Z,20.29
2019-06-07T09:24:41.379Z,20.33
2019-06-07T09:25:56.521Z,20.29
2019-06-07T09:26:50.418Z,20.27
2019-06-07T09:27:50.940Z,20.24
2019-06-07T09:29:01.286Z,20.19
2019-06-07T09:30:11.718Z,20.18
2019-06-07T09:31:12.834Z,20.14
2019-06-07T09:32:18.078Z,20.12
2019-06-07T09:33:19.179Z,20.07
2019-06-07T09:34:28.366Z,20.02
2019-06-07T09:35:28.867Z,20.12
2019-06-07T09:36:31.438Z,20.12
2019-06-07T09:38:04.412Z,20.04
2019-06-07T09:38:38.394Z,20.14
2019-06-07T09:39:38.859Z,20.11
2019-06-07T09:40:39.458Z,20.12
2019-06-07T09:41:49.406Z,20.15
2019-06-07T09:42:46.469Z,20.18
2019-06-07T09:44:01.479Z,20.22
2019-06-07T09:44:57.027Z,20.27
2019-06-07T09:46:09.002Z,20.26
2019-06-07T09:47:30.391Z,20.15
2019-06-07T09:48:23.882Z,20.24
2019-06-07T09:49:32.233Z,20.30
2019-06-07T09:50:27.771Z,20.40
2019-06-07T09:51:28.237Z,20.29
2019-06-07T09:52:28.740Z,20.37
2019-06-07T09:53:29.219Z,20.30
2019-06-07T09:55:04.102Z,20.27
2019-06-07T09:55:36.178Z,20.33
2019-06-07T09:56:36.654Z,20.46
2019-06-07T09:57:39.238Z,20.39
2019-06-07T09:58:55.250Z,20.42
2019-06-07T09:59:46.832Z,20.49
2019-06-07T10:00:47.479Z,20.63
2019-06-07T10:01:48.038Z,20.53
2019-06-07T10:02:49.898Z,20.52
2019-06-07T10:03:50.410Z,20.53
2019-06-07T10:04:50.855Z,20.58
2019-06-07T10:05:51.353Z,20.63
2019-06-07T10:06:51.839Z,20.73
2019-06-07T10:08:09.762Z,20.67
2019-06-07T10:10:04.770Z,20.77
2019-06-07T10:10:22.327Z,20.75
2019-06-07T10:11:11.810Z,20.77
2019-06-07T10:12:12.299Z,20.73
2019-06-07T10:13:13.933Z,20.78
2019-06-07T10:14:14.418Z,20.70
2019-06-07T10:15:15.018Z,20.67
2019-06-07T10:16:15.503Z,20.77
2019-06-07T10:17:16.159Z,20.66
2019-06-07T10:18:16.660Z,20.73
2019-06-07T10:19:25.891Z,20.67
2019-06-07T10:20:26.394Z,20.75
2019-06-07T10:21:43.841Z,20.82
2019-06-07T10:22:44.330Z,20.90
2019-06-07T10:23:47.030Z,20.86
2019-06-07T10:24:47.513Z,21.01
2019-06-07T10:25:48.159Z,21.00
2019-06-07T10:26:48.640Z,21.14
2019-06-07T10:27:49.152Z,21.20
2019-06-07T10:28:53.324Z,21.32
2019-06-07T10:29:54.105Z,21.33
2019-06-07T10:30:55.699Z,21.38
2019-06-07T10:31:56.259Z,21.30
2019-06-07T10:33:12.393Z,21.33
2019-06-07T10:34:12.899Z,21.43
2019-06-07T10:35:16.374Z,21.47
2019-06-07T10:37:34.379Z,21.50
2019-06-07T10:38:36.033Z,21.59
2019-06-07T10:39:48.013Z,21.69
2019-06-07T10:40:43.019Z,21.62
2019-06-07T10:41:43.673Z,21.56
2019-06-07T10:42:44.187Z,21.60
2019-06-07T10:43:44.689Z,21.59
2019-06-07T10:44:45.339Z,21.58
2019-06-07T10:45:45.860Z,21.50
2019-06-07T10:46:46.504Z,21.66
2019-06-07T10:47:47.025Z,21.72
2019-06-07T10:48:47.579Z,21.74
2019-06-07T10:49:48.089Z,21.65
2019-06-07T10:50:48.658Z,21.65
2019-06-07T10:51:49.179Z,21.66
2019-06-07T10:52:49.700Z,21.62
2019-06-07T10:53:50.219Z,21.59
2019-06-07T10:54:51.858Z,21.54
2019-06-07T10:55:52.378Z,21.70
2019-06-07T10:56:52.857Z,21.70
2019-06-07T10:58:02.777Z,21.62
2019-06-07T10:59:05.095Z,21.60
2019-06-07T11:00:07.046Z,21.65
2019-06-07T11:01:09.390Z,21.58
2019-06-07T11:02:09.933Z,21.70
2019-06-07T11:03:11.855Z,21.65
2019-06-07T11:04:13.721Z,21.65
2019-06-07T11:05:14.608Z,21.68
2019-06-07T11:06:29.946Z,21.74
2019-06-07T11:07:30.416Z,21.81
2019-06-07T11:08:31.016Z,21.88
2019-06-07T11:09:31.515Z,21.92
2019-06-07T11:10:33.113Z,22.00
2019-06-07T11:11:33.598Z,22.00
2019-06-07T11:12:40.959Z,22.01
2019-06-07T11:13:41.459Z,21.94
2019-06-07T11:14:41.940Z,22.01
2019-06-07T11:15:42.425Z,21.96
2019-06-07T11:16:42.902Z,22.00
2019-06-07T11:17:43.379Z,22.03
2019-06-07T11:18:46.039Z,22.08
2019-06-07T11:19:46.521Z,22.01
2019-06-07T11:20:47.134Z,21.97
2019-06-07T11:21:47.610Z,21.89
2019-06-07T11:22:48.119Z,21.94
2019-06-07T11:23:48.590Z,22.04
2019-06-07T11:24:49.289Z,21.91
2019-06-07T11:25:49.839Z,22.07
2019-06-07T11:26:52.485Z,21.99
2019-06-07T11:27:52.953Z,22.00
2019-06-07T11:28:53.459Z,22.00
2019-06-07T11:29:53.959Z,21.97
2019-06-07T11:32:12.601Z,22.00
2019-06-07T11:33:16.364Z,22.04
2019-06-07T11:34:17.113Z,22.16
2019-06-07T11:35:19.016Z,22.22
2019-06-07T11:36:19.648Z,22.28
2019-06-07T11:37:20.118Z,22.23
2019-06-07T11:38:20.590Z,22.30
2019-06-07T11:39:21.093Z,22.34
2019-06-07T11:40:34.517Z,22.38
2019-06-07T11:41:28.039Z,22.44
2019-06-07T11:42:28.557Z,22.38
2019-06-07T11:43:29.079Z,22.51
2019-06-07T11:44:29.600Z,22.55
2019-06-07T11:45:30.119Z,22.43
2019-06-07T11:46:30.638Z,22.37
2019-06-07T11:47:31.172Z,22.33
2019-06-07T11:48:31.802Z,22.41
2019-06-07T11:49:32.318Z,22.37
2019-06-07T11:50:32.838Z,22.51
2019-06-07T11:51:33.358Z,22.51
2019-06-07T11:52:33.878Z,22.58
2019-06-07T11:53:34.389Z,22.74
2019-06-07T11:54:35.043Z,22.77
2019-06-07T11:55:35.543Z,22.76
2019-06-07T11:56:36.169Z,22.84
2019-06-07T11:57:36.653Z,22.92
2019-06-07T11:58:37.280Z,22.92
2019-06-07T11:59:37.774Z,23.10
2019-06-07T12:00:39.413Z,23.08
2019-06-07T12:01:39.967Z,23.07
2019-06-07T12:02:41.679Z,23.16
2019-06-07T12:03:42.201Z,23.36
2019-06-07T12:04:42.918Z,23.51
2019-06-07T12:05:43.416Z,23.52
2019-06-07T12:06:44.078Z,23.54
2019-06-07T12:07:44.600Z,23.64
2019-06-07T12:08:49.483Z,23.73
2019-06-07T12:09:56.315Z,23.82
2019-06-07T12:10:56.598Z,23.96
2019-06-07T12:11:57.074Z,24.11
2019-06-07T12:12:57.735Z,24.28
2019-06-07T12:13:58.255Z,24.47
2019-06-07T12:15:05.921Z,24.69
2019-06-07T12:16:06.462Z,24.92
2019-06-07T12:17:09.021Z,24.94
2019-06-07T12:18:09.539Z,25.36
2019-06-07T12:19:11.803Z,25.56
2019-06-07T12:20:14.590Z,25.80
2019-06-07T12:21:18.128Z,25.83
2019-06-07T12:22:19.931Z,26.10
2019-06-07T12:23:21.658Z,26.41
2019-06-07T12:24:22.189Z,26.49
2019-06-07T12:25:25.258Z,26.66
2019-06-07T12:26:25.819Z,26.93
2019-06-07T12:27:26.337Z,27.10
2019-06-07T12:28:26.860Z,27.15
2019-06-07T12:29:27.409Z,27.41
2019-06-07T12:30:28.246Z,27.45
2019-06-07T12:31:28.792Z,27.57
2019-06-07T12:32:29.273Z,27.72
2019-06-07T12:33:29.761Z,27.82
2019-06-07T12:34:30.265Z,27.93
2019-06-07T12:35:31.879Z,27.97
2019-06-07T12:36:32.363Z,28.06
2019-06-07T12:37:43.818Z,28.13
2019-06-07T12:38:39.848Z,27.82
2019-06-07T12:39:40.313Z,27.55
2019-06-07T12:40:40.798Z,27.26
2019-06-07T12:41:41.275Z,27.03
2019-06-07T12:42:41.853Z,27.03
2019-06-07T12:43:42.698Z,27.15
2019-06-07T12:44:43.213Z,27.25
2019-06-07T12:45:45.523Z,27.22
2019-06-07T12:46:46.229Z,27.16
2019-06-07T12:47:46.698Z,27.07
2019-06-07T12:48:47.195Z,27.10
2019-06-07T12:49:47.734Z,27.18
2019-06-07T12:50:48.217Z,27.19
2019-06-07T12:51:56.339Z,27.35
2019-06-07T12:52:56.814Z,27.40
2019-06-07T12:53:57.328Z,27.48
2019-06-07T12:54:57.818Z,27.55
2019-06-07T12:56:00.279Z,27.57
2019-06-07T12:57:00.900Z,27.72
2019-06-07T12:58:01.379Z,27.93
2019-06-07T12:59:01.890Z,28.13
2019-06-07T13:00:02.964Z,28.35
2019-06-07T13:01:03.520Z,28.49
2019-06-07T13:02:04.008Z,28.75
2019-06-07T13:03:04.503Z,28.92
2019-06-07T13:04:04.994Z,28.93
2019-06-07T13:05:05.561Z,28.97
2019-06-07T13:06:06.069Z,29.06
2019-06-07T13:07:06.561Z,29.07
2019-06-07T13:08:07.069Z,28.97
2019-06-07T13:09:07.574Z,28.94
2019-06-07T13:10:08.053Z,28.94
2019-06-07T13:11:17.375Z,29.07
2019-06-07T13:12:15.519Z,29.15
2019-06-07T13:13:16.093Z,29.15
2019-06-07T13:14:17.688Z,29.25
2019-06-07T13:15:20.706Z,29.32
2019-06-07T13:16:24.223Z,29.44
2019-06-07T13:17:24.840Z,29.49
2019-06-07T13:18:25.371Z,29.47
2019-06-07T13:19:28.498Z,29.44
2019-06-07T13:20:29.121Z,29.58
2019-06-07T13:21:30.719Z,29.62
2019-06-07T13:22:31.261Z,29.57
2019-06-07T13:23:31.980Z,29.65
2019-06-07T13:24:32.539Z,29.67
2019-06-07T13:25:46.622Z,29.74
2019-06-07T13:26:47.280Z,29.79
2019-06-07T13:29:04.399Z,29.86
2019-06-07T13:30:09.727Z,29.84
2019-06-07T13:31:11.382Z,29.90
2019-06-07T13:32:11.907Z,30.05
2019-06-07T13:33:12.433Z,30.13
2019-06-07T13:34:12.939Z,30.18
2019-06-07T13:35:16.453Z,30.33